Time;durP1;ratioP1;P1;durP2;ratioP2;P2;SDS_P1;SDS_P2;PMS_P1;PMS_P2;Temp;Humidity;BMP_temperature;BMP_pressure;BME280_temperature;BME280_humidity;BME280_pressure;Samples;Min_cycle;Max_cycle;Signal;HPM_P1;HPM_P2
2021/09/19 00:00:22;;;;;;;;;;;;;;;13.15;86.61;97919.52;1736427;81;24625;-86
2021/09/19 00:02:50;;;;;;;;;;;;;;;13.05;86.60;97915.53;1741227;80;20596;-86
2021/09/19 00:05:17;;;;;;;;;;;;;;;13.04;86.57;97921.74;1761292;80;25396;-86
2021/09/19 00:07:45;;;;;;;;;;;;;;;12.93;86.57;97927.10;1739324;82;22022;-86
2021/09/19 00:10:13;;;;;;;;;;;;;;;12.84;86.54;97928.75;1761477;79;26059;-85
2021/09/19 00:12:40;;;;;;;;;;;;;;;12.74;86.53;97929.20;1786718;78;24507;-85
2021/09/19 00:15:13;;;;;;;;;;;;;;;12.69;86.52;97927.46;1720484;82;20294;-85
2021/09/19 00:17:39;;;;;;;;;;;;;;;12.67;86.51;97929.86;1761938;80;24853;-85
2021/09/19 00:20:12;;;;;;;;;;;;;;;12.69;86.54;97931.88;1720287;82;21961;-85
2021/09/19 00:22:45;;;;;;;;;;;;;;;12.69;86.57;97931.40;1749791;82;26119;-84
2021/09/19 00:25:13;;;;;;;;;;;;;;;12.64;86.60;97923.09;1726606;82;24528;-85
2021/09/19 00:27:40;;;;;;;;;;;;;;;12.65;86.61;97936.58;1739050;80;20229;-85
2021/09/19 00:32:54;;;;;;;;;;;;;;;12.64;86.61;97940.16;1656062;84;22396;-84
2021/09/19 00:35:20;;;;;;;;;;;;;;;12.69;86.67;97939.28;1654116;85;26014;-85
2021/09/19 00:37:46;;;;;;;;;;;;;;;12.72;86.67;97940.31;1653715;85;24388;-84
2021/09/19 00:40:13;;;;;;;;;;;;;;;12.76;86.70;97942.21;1635441;85;20309;-84
2021/09/19 00:42:39;;;;;;;;;;;;;;;12.75;86.73;97941.86;1626410;86;24739;-84
2021/09/19 00:45:10;;;;;;;;;;;;;;;12.76;86.74;97944.36;1651314;86;22099;-85
2021/09/19 00:47:40;;;;;;;;;;;;;;;12.79;86.75;97941.93;1654353;85;26083;-86
2021/09/19 00:50:11;;;;;;;;;;;;;;;12.81;86.79;97946.58;1635317;85;24489;-85
2021/09/19 00:52:39;;;;;;;;;;;;;;;12.72;86.78;97945.56;1637774;85;20297;-86
2021/09/19 00:55:07;;;;;;;;;;;;;;;12.68;86.78;97946.80;1635079;85;25614;-86
2021/09/19 00:57:38;;;;;;;;;;;;;;;12.68;86.77;97957.78;1614379;86;22298;-85
2021/09/19 01:00:07;;;;;;;;;;;;;;;12.66;86.74;97953.96;1630727;86;26127;-86
2021/09/19 01:02:34;;;;;;;;;;;;;;;12.60;86.70;97957.62;1622222;86;24492;-85
2021/09/19 01:05:01;;;;;;;;;;;;;;;12.50;86.65;97957.07;1618430;86;20300;-86
2021/09/19 01:07:29;;;;;;;;;;;;;;;12.51;86.59;97956.59;1613636;87;20930;-86
2021/09/19 01:09:56;;;;;;;;;;;;;;;12.54;86.57;97965.53;1625054;86;21999;-85
2021/09/19 01:12:23;;;;;;;;;;;;;;;12.53;86.53;97965.18;1621981;86;26620;-86
2021/09/19 01:14:49;;;;;;;;;;;;;;;12.51;86.52;97965.78;1619459;86;24549;-87
2021/09/19 01:17:19;;;;;;;;;;;;;;;12.47;86.50;97967.02;1625732;86;20319;-87
2021/09/19 01:19:47;;;;;;;;;;;;;;;12.43;86.48;97966.92;1611363;86;24748;-87
2021/09/19 01:22:14;;;;;;;;;;;;;;;12.38;86.46;97963.86;1616970;86;22181;-87
2021/09/19 01:24:41;;;;;;;;;;;;;;;12.37;86.45;97965.66;1612718;86;26239;-86
2021/09/19 01:27:07;;;;;;;;;;;;;;;12.37;86.42;97964.34;1617114;86;23909;-85
2021/09/19 01:29:33;;;;;;;;;;;;;;;12.36;86.47;97969.70;1626328;86;20264;-85
2021/09/19 01:32:00;;;;;;;;;;;;;;;12.38;86.45;97970.42;1645814;84;24774;-85
2021/09/19 01:34:26;;;;;;;;;;;;;;;12.37;86.46;97975.31;1654920;84;22750;-86
2021/09/19 01:36:53;;;;;;;;;;;;;;;12.39;86.43;97978.63;1660485;84;26082;-86
2021/09/19 01:39:23;;;;;;;;;;;;;;;12.40;86.41;97977.67;1657716;84;24573;-86
2021/09/19 01:41:50;;;;;;;;;;;;;;;12.37;86.41;97976.15;1647732;85;20170;-86
2021/09/19 01:44:16;;;;;;;;;;;;;;;12.40;86.41;97973.73;1660262;84;25060;-86
2021/09/19 01:46:45;;;;;;;;;;;;;;;12.42;86.41;97975.76;1658440;84;20185;-85
2021/09/19 01:49:11;;;;;;;;;;;;;;;12.33;86.36;97979.17;1667214;84;27248;-86
2021/09/19 01:51:38;;;;;;;;;;;;;;;12.21;86.29;97981.50;1663835;84;24468;-86
2021/09/19 01:54:09;;;;;;;;;;;;;;;12.05;86.21;97984.57;1661935;84;20260;-85
2021/09/19 01:56:32;;;;;;;;;;;;;;;12.01;86.14;97985.76;1667578;84;24884;-86
2021/09/19 01:58:58;;;;;;;;;;;;;;;12.00;86.10;97988.86;1664593;84;22712;-86
2021/09/19 02:01:24;;;;;;;;;;;;;;;11.95;86.10;97991.03;1652044;84;26200;-86
2021/09/19 02:03:52;;;;;;;;;;;;;;;11.90;86.08;97989.27;1654976;84;24427;-85
2021/09/19 02:06:18;;;;;;;;;;;;;;;11.92;86.06;97986.05;1649093;84;20305;-85
2021/09/19 02:08:46;;;;;;;;;;;;;;;11.93;86.04;97986.89;1660181;84;24729;-85
2021/09/19 02:11:13;;;;;;;;;;;;;;;11.94;86.03;97986.77;1662878;84;22068;-85
2021/09/19 02:13:40;;;;;;;;;;;;;;;11.91;86.04;97989.63;1659542;84;25991;-86
2021/09/19 02:16:07;;;;;;;;;;;;;;;11.90;86.00;97986.64;1669106;84;24609;-86
2021/09/19 02:18:33;;;;;;;;;;;;;;;11.90;86.01;97989.75;1658373;84;20216;-86
2021/09/19 02:21:01;;;;;;;;;;;;;;;11.90;86.04;97988.44;1625343;86;24768;-85
2021/09/19 02:23:28;;;;;;;;;;;;;;;11.86;86.00;97995.73;1622778;87;22071;-85
2021/09/19 02:26:03;;;;;;;;;;;;;;;11.84;85.98;97989.77;1655556;85;26037;-85
2021/09/19 02:28:32;;;;;;;;;;;;;;;11.77;85.94;97993.88;1622031;85;24483;-85
2021/09/19 02:30:59;;;;;;;;;;;;;;;11.76;85.89;97988.75;1650864;85;20371;-85
2021/09/19 02:33:25;;;;;;;;;;;;;;;11.76;85.89;97994.82;1651088;85;24731;-85
2021/09/19 02:35:51;;;;;;;;;;;;;;;11.76;85.87;97992.67;1653166;85;21958;-85
2021/09/19 02:38:17;;;;;;;;;;;;;;;11.72;85.86;97993.39;1649865;85;25946;-85
2021/09/19 02:40:46;;;;;;;;;;;;;;;11.66;85.81;97996.50;1644747;85;21384;-85
2021/09/19 02:43:12;;;;;;;;;;;;;;;11.58;85.79;97995.80;1622507;86;20218;-85
2021/09/19 02:45:38;;;;;;;;;;;;;;;11.51;85.75;98001.17;1662936;84;24785;-85
2021/09/19 02:48:06;;;;;;;;;;;;;;;11.44;85.69;98000.50;1661585;84;21953;-84
2021/09/19 02:50:32;;;;;;;;;;;;;;;11.39;85.66;98007.89;1659967;85;25346;-85
2021/09/19 02:52:59;;;;;;;;;;;;;;;11.27;85.58;98005.77;1661810;84;24541;-85
2021/09/19 02:55:25;;;;;;;;;;;;;;;11.17;85.52;98002.22;1660008;84;20251;-85
2021/09/19 02:57:52;;;;;;;;;;;;;;;11.04;85.43;98003.66;1665379;84;24757;-85
2021/09/19 03:00:19;;;;;;;;;;;;;;;11.01;85.39;98005.22;1660742;84;21946;-85
2021/09/19 03:02:46;;;;;;;;;;;;;;;11.01;85.35;98005.22;1654739;84;26146;-85
2021/09/19 03:05:12;;;;;;;;;;;;;;;10.97;85.32;98012.93;1624200;85;24431;-86
2021/09/19 03:07:38;;;;;;;;;;;;;;;10.91;85.29;98014.72;1661423;84;20346;-85
2021/09/19 03:10:05;;;;;;;;;;;;;;;10.85;85.24;98011.29;1660627;84;24804;-85
2021/09/19 03:12:31;;;;;;;;;;;;;;;10.89;85.24;98014.02;1660172;84;22941;-84
2021/09/19 03:14:59;;;;;;;;;;;;;;;10.89;85.22;98015.33;1663527;84;26940;-85
2021/09/19 03:17:25;;;;;;;;;;;;;;;10.86;85.20;98016.86;1660861;84;24508;-84
2021/09/19 03:19:52;;;;;;;;;;;;;;;10.83;85.15;98011.40;1656981;84;20368;-84
2021/09/19 03:22:24;;;;;;;;;;;;;;;10.79;85.12;98006.53;1663996;84;24744;-84
2021/09/19 03:24:51;;;;;;;;;;;;;;;10.82;85.06;98011.52;1663071;84;21929;-84
2021/09/19 03:27:18;;;;;;;;;;;;;;;10.84;85.08;98010.45;1668158;84;26153;-84
2021/09/19 03:29:44;;;;;;;;;;;;;;;10.85;85.06;98016.53;1657716;84;25241;-84
2021/09/19 03:32:12;;;;;;;;;;;;;;;10.81;85.03;98015.08;1628029;85;20505;-84
2021/09/19 03:34:38;;;;;;;;;;;;;;;10.78;84.98;98019.25;1627442;87;24796;-85
2021/09/19 03:37:05;;;;;;;;;;;;;;;10.78;84.95;98018.78;1620999;87;22886;-85
2021/09/19 03:39:31;;;;;;;;;;;;;;;10.82;84.94;98013.66;1620166;87;26641;-85
2021/09/19 03:41:57;;;;;;;;;;;;;;;10.85;84.92;98013.91;1620379;86;24489;-85
2021/09/19 03:44:23;;;;;;;;;;;;;;;10.86;84.90;98016.86;1615285;87;20254;-85
2021/09/19 03:46:49;;;;;;;;;;;;;;;10.89;84.88;98014.02;1622067;87;24816;-85
2021/09/19 03:49:15;;;;;;;;;;;;;;;10.91;84.89;98018.64;1617557;87;21993;-84
2021/09/19 03:51:43;;;;;;;;;;;;;;;10.93;84.89;98014.13;1625052;87;25955;-84
2021/09/19 03:54:09;;;;;;;;;;;;;;;10.94;84.88;98009.73;1624420;87;24472;-84
2021/09/19 03:56:36;;;;;;;;;;;;;;;10.98;84.86;98019.84;1616020;86;20244;-84
2021/09/19 03:59:02;;;;;;;;;;;;;;;11.07;84.92;98016.52;1627019;86;24812;-84
2021/09/19 04:01:28;;;;;;;;;;;;;;;11.10;84.92;98018.88;1619262;87;21943;-84
2021/09/19 04:03:56;;;;;;;;;;;;;;;11.14;84.95;98023.39;1614898;87;26002;-84
2021/09/19 04:06:22;;;;;;;;;;;;;;;11.15;84.95;98019.36;1621500;87;25585;-85
2021/09/19 04:08:48;;;;;;;;;;;;;;;11.13;84.94;98025.66;1623224;87;20261;-85
2021/09/19 04:11:15;;;;;;;;;;;;;;;11.15;84.91;98018.05;1624551;86;24737;-85
2021/09/19 04:13:41;;;;;;;;;;;;;;;11.33;84.91;98025.77;1624383;87;21611;-85
2021/09/19 04:16:08;;;;;;;;;;;;;;;11.40;84.92;98024.78;1619281;87;26754;-84
2021/09/19 04:18:34;;;;;;;;;;;;;;;11.39;84.89;98027.55;1606837;87;24408;-84
2021/09/19 04:21:00;;;;;;;;;;;;;;;11.33;84.87;98025.77;1620075;87;20292;-85
2021/09/19 04:23:29;;;;;;;;;;;;;;;11.37;84.83;98024.20;1620981;87;24772;-85
2021/09/19 04:25:55;;;;;;;;;;;;;;;11.50;84.82;98025.73;1618285;87;21975;-84
2021/09/19 04:28:22;;;;;;;;;;;;;;;11.62;84.80;98033.06;1624617;86;26206;-84
2021/09/19 04:30:48;;;;;;;;;;;;;;;11.68;84.77;98029.48;1619986;86;25225;-85
2021/09/19 04:33:15;;;;;;;;;;;;;;;11.65;84.73;98030.22;1644233;84;20306;-84
2021/09/19 04:35:41;;;;;;;;;;;;;;;11.69;84.67;98032.46;1668586;85;25461;-84
2021/09/19 04:38:07;;;;;;;;;;;;;;;11.67;84.62;98034.87;1648520;84;22241;-84
2021/09/19 04:40:33;;;;;;;;;;;;;;;11.65;84.54;98033.67;1633582;85;25992;-84
2021/09/19 04:42:59;;;;;;;;;;;;;;;11.66;84.49;98034.03;1657648;84;24754;-85
2021/09/19 04:45:27;;;;;;;;;;;;;;;11.64;84.40;98039.03;1655658;84;20359;-85
2021/09/19 04:47:56;;;;;;;;;;;;;;;11.67;84.35;98037.48;1656188;84;25415;-85
2021/09/19 04:50:23;;;;;;;;;;;;;;;11.65;84.27;98040.23;1656926;84;22776;-85
2021/09/19 04:52:49;;;;;;;;;;;;;;;11.70;84.21;98042.00;1658246;84;26057;-85
2021/09/19 04:55:15;;;;;;;;;;;;;;;11.78;84.16;98042.73;1655995;84;24329;-85
2021/09/19 04:57:41;;;;;;;;;;;;;;;11.72;84.08;98051.89;1658127;84;20244;-84
2021/09/19 05:00:07;;;;;;;;;;;;;;;11.64;84.02;98049.52;1662685;84;20910;-84
2021/09/19 05:02:34;;;;;;;;;;;;;;;11.59;83.95;98052.51;1666855;84;22123;-86
2021/09/19 05:04:59;;;;;;;;;;;;;;;11.59;83.93;98048.58;1661819;84;21633;-85
2021/09/19 05:07:25;;;;;;;;;;;;;;;11.55;83.88;98050.27;1660649;84;20944;-85
2021/09/19 05:09:51;;;;;;;;;;;;;;;11.50;83.86;98046.70;1658921;84;20360;-84
2021/09/19 05:12:17;;;;;;;;;;;;;;;11.48;83.81;98057.77;1660152;84;25455;-84
2021/09/19 05:14:43;;;;;;;;;;;;;;;11.47;83.77;98061.81;1675333;83;20330;-84
2021/09/19 05:17:09;;;;;;;;;;;;;;;11.45;83.71;98054.57;1657736;84;25988;-84
2021/09/19 05:19:35;;;;;;;;;;;;;;;11.46;83.67;98053.11;1654116;84;20926;-85
2021/09/19 05:22:01;;;;;;;;;;;;;;;11.51;83.61;98059.33;1678793;83;20316;-84
2021/09/19 05:24:27;;;;;;;;;;;;;;;11.51;83.57;98059.33;1674977;83;24745;-85
2021/09/19 05:26:57;;;;;;;;;;;;;;;11.43;83.50;98057.78;1676366;83;22790;-85
2021/09/19 05:29:23;;;;;;;;;;;;;;;11.32;83.44;98066.02;1678855;83;25855;-85
2021/09/19 05:31:49;;;;;;;;;;;;;;;11.24;83.38;98063.63;1674879;84;24592;-85
2021/09/19 05:34:15;;;;;;;;;;;;;;;11.20;83.34;98063.04;1649298;85;20415;-85
2021/09/19 05:36:41;;;;;;;;;;;;;;;11.24;83.28;98067.08;1647580;85;24808;-85
2021/09/19 05:39:07;;;;;;;;;;;;;;;11.26;83.23;98071.73;1649715;85;20215;-84
2021/09/19 05:41:33;;;;;;;;;;;;;;;11.28;83.21;98055.91;1648333;85;26132;-85
2021/09/19 05:44:00;;;;;;;;;;;;;;;11.29;83.20;98049.72;1624384;86;20360;-85
2021/09/19 05:46:26;;;;;;;;;;;;;;;11.25;83.21;98052.20;1648463;84;20522;-85
2021/09/19 05:48:52;;;;;;;;;;;;;;;11.33;83.21;98051.97;1623318;86;24728;-85
2021/09/19 05:51:21;;;;;;;;;;;;;;;11.45;83.24;98050.17;1626894;86;22073;-85
2021/09/19 05:53:46;;;;;;;;;;;;;;;11.49;83.21;98055.51;1635612;86;26780;-85
2021/09/19 05:56:12;;;;;;;;;;;;;;;11.50;83.19;98058.97;1625656;86;24509;-85
2021/09/19 05:58:38;;;;;;;;;;;;;;;11.47;83.13;98059.19;1633701;86;20883;-85
2021/09/19 06:01:04;;;;;;;;;;;;;;;11.42;83.09;98060.04;1649784;84;24879;-87
2021/09/19 06:03:31;;;;;;;;;;;;;;;11.46;83.06;98062.77;1645012;85;20836;-86
2021/09/19 06:05:57;;;;;;;;;;;;;;;11.49;83.04;98063.84;1651523;85;25981;-86
2021/09/19 06:08:23;;;;;;;;;;;;;;;11.49;83.00;98059.92;1647872;85;24475;-85
2021/09/19 06:10:49;;;;;;;;;;;;;;;11.43;82.95;98065.64;1645488;85;20377;-86
2021/09/19 06:13:15;;;;;;;;;;;;;;;11.33;82.89;98051.13;1650891;85;24755;-85
2021/09/19 06:15:41;;;;;;;;;;;;;;;11.43;82.82;98068.26;1640481;84;21956;-85
2021/09/19 06:18:07;;;;;;;;;;;;;;;11.35;82.79;98057.56;1620819;86;26104;-85
2021/09/19 06:20:33;;;;;;;;;;;;;;;11.32;82.75;98062.08;1651192;85;24414;-85
2021/09/19 06:22:59;;;;;;;;;;;;;;;11.43;82.72;98055.99;1624248;86;20821;-85
2021/09/19 06:25:26;;;;;;;;;;;;;;;11.41;82.65;98055.27;1643729;85;25645;-85
2021/09/19 06:27:52;;;;;;;;;;;;;;;11.49;82.61;98057.30;1631140;85;21805;-85
2021/09/19 06:30:18;;;;;;;;;;;;;;;11.48;82.59;98057.77;1654308;84;20970;-85
2021/09/19 06:32:44;;;;;;;;;;;;;;;11.46;82.56;98058.83;1653889;83;25452;-86
2021/09/19 06:35:10;;;;;;;;;;;;;;;11.36;82.54;98048.73;1671862;84;20401;-86
2021/09/19 06:37:37;;;;;;;;;;;;;;;11.35;82.51;98054.95;1675106;84;24730;-85
2021/09/19 06:40:05;;;;;;;;;;;;;;;11.41;82.51;98053.12;1678411;84;22123;-87
2021/09/19 06:42:31;;;;;;;;;;;;;;;11.43;82.47;98057.30;1693071;82;26107;-85
2021/09/19 06:44:57;;;;;;;;;;;;;;;11.41;82.41;98061.82;1681738;83;24532;-85
2021/09/19 06:47:23;;;;;;;;;;;;;;;11.42;82.36;98056.11;1677264;84;20885;-85
2021/09/19 06:49:49;;;;;;;;;;;;;;;11.41;82.31;98064.44;1677315;83;20251;-85
2021/09/19 06:52:15;;;;;;;;;;;;;;;11.42;82.27;98066.11;1669888;84;21999;-85
2021/09/19 06:54:43;;;;;;;;;;;;;;;11.38;82.25;98069.10;1677930;83;26083;-85
2021/09/19 06:57:11;;;;;;;;;;;;;;;11.31;82.20;98066.13;1691304;83;20494;-85
2021/09/19 06:59:36;;;;;;;;;;;;;;;11.32;82.13;98075.66;1677290;83;20685;-85
2021/09/19 07:02:03;;;;;;;;;;;;;;;11.21;82.09;98071.26;1681891;83;20327;-85
2021/09/19 07:04:29;;;;;;;;;;;;;;;11.12;82.03;98071.98;1654998;85;21992;-85
2021/09/19 07:06:55;;;;;;;;;;;;;;;11.00;82.00;98070.31;1680286;83;26220;-85
2021/09/19 07:09:22;;;;;;;;;;;;;;;10.91;81.92;98066.60;1683387;83;25167;-85
2021/09/19 07:11:48;;;;;;;;;;;;;;;10.87;81.86;98070.89;1674509;83;20859;-84
2021/09/19 07:14:14;;;;;;;;;;;;;;;10.87;81.84;98069.58;1677423;84;24801;-85
2021/09/19 07:16:42;;;;;;;;;;;;;;;10.77;81.82;98072.07;1677605;83;22014;-85
2021/09/19 07:19:11;;;;;;;;;;;;;;;10.78;81.80;98067.67;1678731;83;25982;-85
2021/09/19 07:21:37;;;;;;;;;;;;;;;10.84;81.86;98073.75;1682597;83;24393;-85
2021/09/19 07:24:04;;;;;;;;;;;;;;;10.83;81.88;98076.84;1682576;83;20287;-85
2021/09/19 07:26:30;;;;;;;;;;;;;;;10.78;81.91;98075.05;1678084;83;20263;-85
2021/09/19 07:28:56;;;;;;;;;;;;;;;10.72;81.90;98071.59;1679772;83;20248;-86
2021/09/19 07:31:22;;;;;;;;;;;;;;;10.72;81.94;98073.37;1675923;83;25974;-85
2021/09/19 07:33:48;;;;;;;;;;;;;;;10.68;81.95;98082.41;1675207;83;24422;-85
2021/09/19 07:36:15;;;;;;;;;;;;;;;10.69;82.00;98084.09;1681205;83;20254;-85
2021/09/19 07:38:41;;;;;;;;;;;;;;;10.63;82.06;98082.77;1679225;83;24779;-85
2021/09/19 07:41:08;;;;;;;;;;;;;;;10.59;82.08;98077.86;1681749;83;21941;-85
2021/09/19 07:43:34;;;;;;;;;;;;;;;10.59;82.13;98086.55;1681117;83;25968;-85
2021/09/19 07:46:00;;;;;;;;;;;;;;;10.59;82.16;98083.09;1680430;83;24474;-85
2021/09/19 07:48:26;;;;;;;;;;;;;;;10.67;82.21;98082.05;1676339;83;20252;-85
2021/09/19 07:50:52;;;;;;;;;;;;;;;10.68;82.30;98086.34;1677512;83;24781;-85
2021/09/19 07:53:19;;;;;;;;;;;;;;;10.70;82.36;98091.80;1698214;81;21943;-85
2021/09/19 07:55:45;;;;;;;;;;;;;;;10.71;82.42;98092.16;1675992;83;26177;-85
2021/09/19 07:58:11;;;;;;;;;;;;;;;10.70;82.46;98091.80;1676312;83;24490;-86
2021/09/19 08:00:37;;;;;;;;;;;;;;;10.68;82.48;98096.81;1677563;83;20906;-85
2021/09/19 08:03:04;;;;;;;;;;;;;;;10.66;82.50;98100.00;1651486;83;39327;-85
2021/09/19 08:05:30;;;;;;;;;;;;;;;10.68;82.51;98104.66;1676327;83;22773;-85
2021/09/19 08:07:56;;;;;;;;;;;;;;;10.55;82.51;98095.58;1651889;84;26038;-85
2021/09/19 08:10:22;;;;;;;;;;;;;;;10.46;82.50;98102.34;1681165;83;24603;-85
2021/09/19 08:12:51;;;;;;;;;;;;;;;10.46;82.50;98101.04;1680136;83;20933;-85
2021/09/19 08:15:19;;;;;;;;;;;;;;;10.35;82.50;98101.47;1681887;83;24928;-85
2021/09/19 08:17:45;;;;;;;;;;;;;;;10.32;82.46;98110.84;1676853;83;22039;-85
2021/09/19 08:20:13;;;;;;;;;;;;;;;10.33;82.47;98113.82;1679398;83;26046;-85
2021/09/19 08:22:40;;;;;;;;;;;;;;;10.29;82.50;98112.39;1680087;83;24503;-85
2021/09/19 08:25:06;;;;;;;;;;;;;;;10.29;82.54;98115.84;1680935;83;20351;-85
2021/09/19 08:27:36;;;;;;;;;;;;;;;10.33;82.58;98112.04;1678595;83;24718;-86
2021/09/19 08:30:10;;;;;;;;;;;;;;;10.38;82.63;98109.92;1678431;83;22800;-85
2021/09/19 08:32:36;;;;;;;;;;;;;;;10.43;82.69;98113.49;1671458;83;26885;-85
2021/09/19 08:35:08;;;;;;;;;;;;;;;10.46;82.73;98113.28;1679356;83;25119;-86
2021/09/19 08:37:34;;;;;;;;;;;;;;;10.51;82.79;98116.86;1662757;85;20314;-86
2021/09/19 08:40:00;;;;;;;;;;;;;;;10.64;82.87;98107.12;1676147;83;20250;-85
2021/09/19 08:42:27;;;;;;;;;;;;;;;10.77;82.94;98114.42;1678004;83;21992;-85
2021/09/19 08:44:53;;;;;;;;;;;;;;;10.87;83.04;98118.84;1677008;83;25973;-85
2021/09/19 08:47:20;;;;;;;;;;;;;;;10.96;83.09;98119.11;1675686;83;24408;-85
2021/09/19 08:49:46;;;;;;;;;;;;;;;11.09;83.15;98119.81;1675208;83;20548;-85
2021/09/19 08:52:13;;;;;;;;;;;;;;;11.20;83.18;98118.05;1679728;83;24894;-85
2021/09/19 08:54:39;;;;;;;;;;;;;;;11.32;83.21;98123.65;1678776;83;21973;-85
2021/09/19 08:57:05;;;;;;;;;;;;;;;11.30;83.21;98126.85;1676111;83;26047;-86
2021/09/19 08:59:48;;;;;;;;;;;;;;;11.30;83.21;98124.70;1679761;83;24496;-86
2021/09/19 09:02:15;;;;;;;;;;;;;;;11.28;83.21;98132.70;1677992;84;20248;-85
2021/09/19 09:04:41;;;;;;;;;;;;;;;11.29;83.17;98127.00;1675811;83;24765;-85
2021/09/19 09:07:13;;;;;;;;;;;;;;;11.22;83.13;98113.53;1676861;83;21989;-85
2021/09/19 09:09:54;;;;;;;;;;;;;;;11.30;83.10;98125.55;1679089;85;26721;-86
2021/09/19 09:12:20;;;;;;;;;;;;;;;11.36;83.08;98124.23;1680886;83;24462;-86
2021/09/19 09:14:48;;;;;;;;;;;;;;;11.52;83.11;98127.80;1678918;84;20232;-85
2021/09/19 09:17:16;;;;;;;;;;;;;;;11.61;83.08;98133.64;1637630;85;24806;-85
2021/09/19 09:19:50;;;;;;;;;;;;;;;11.59;83.07;98128.98;1677436;83;22972;-85
2021/09/19 09:22:18;;;;;;;;;;;;;;;11.53;83.00;98132.09;1689614;83;26818;-86
2021/09/19 09:24:45;;;;;;;;;;;;;;;11.52;82.96;98127.31;1675145;84;24523;-87
2021/09/19 09:27:18;;;;;;;;;;;;;;;11.59;82.92;98131.61;1679137;83;20514;-86
2021/09/19 09:30:03;;;;;;;;;;;;;;;11.65;82.90;98135.06;1678475;83;24243;-86
2021/09/19 09:32:29;;;;;;;;;;;;;;;11.78;82.85;98133.18;1681678;83;22062;-85
2021/09/19 09:35:12;;;;;;;;;;;;;;;11.75;82.83;98134.72;1680857;83;26841;-85
2021/09/19 09:37:39;;;;;;;;;;;;;;;11.69;82.77;98137.31;1656788;84;24715;-86
2021/09/19 09:40:19;;;;;;;;;;;;;;;11.65;82.73;98131.13;1688957;83;20470;-86
2021/09/19 09:43:02;;;;;;;;;;;;;;;11.71;82.70;98140.66;1697769;82;25644;-86
2021/09/19 09:45:35;;;;;;;;;;;;;;;11.83;82.67;98137.58;1626740;86;22099;-87
2021/09/19 09:48:03;;;;;;;;;;;;;;;11.79;82.61;98137.91;1608949;87;26195;-86
2021/09/19 09:50:34;;;;;;;;;;;;;;;11.75;82.58;98141.27;1633103;86;24501;-87
2021/09/19 09:53:12;;;;;;;;;;;;;;;11.82;82.58;98141.15;1631905;86;20257;-84
2021/09/19 09:55:42;;;;;;;;;;;;;;;11.88;82.57;98139.35;1630872;86;24813;-87
2021/09/19 09:58:11;;;;;;;;;;;;;;;11.91;82.53;98137.78;1628947;86;21298;-86
2021/09/19 10:00:38;;;;;;;;;;;;;;;11.91;82.48;98142.19;1630768;86;26774;-86
2021/09/19 10:03:11;;;;;;;;;;;;;;;11.88;82.46;98140.66;1612087;87;25134;-86
2021/09/19 10:05:37;;;;;;;;;;;;;;;11.85;82.43;98139.58;1617898;87;20526;-87
2021/09/19 10:08:03;;;;;;;;;;;;;;;11.89;82.38;98140.99;1670465;84;20270;-86
2021/09/19 10:10:31;;;;;;;;;;;;;;;11.96;82.34;98148.73;1686671;84;22025;-87
2021/09/19 10:12:59;;;;;;;;;;;;;;;11.98;82.30;98148.63;1676062;84;26688;-85
2021/09/19 10:15:26;;;;;;;;;;;;;;;11.89;82.23;98148.86;1676803;83;24571;-85
2021/09/19 10:17:53;;;;;;;;;;;;;;;11.83;82.13;98152.47;1665392;84;20267;-86
2021/09/19 10:20:21;;;;;;;;;;;;;;;11.85;82.08;98152.69;1677009;84;24841;-85
2021/09/19 10:22:49;;;;;;;;;;;;;;;12.00;82.03;98155.39;1664890;84;22091;-85
2021/09/19 10:25:23;;;;;;;;;;;;;;;12.11;82.00;98154.05;1677257;84;26027;-86
2021/09/19 10:27:50;;;;;;;;;;;;;;;12.23;81.96;98154.03;1682903;83;24503;-86
2021/09/19 10:30:18;;;;;;;;;;;;;;;12.30;81.89;98149.95;1691500;83;20679;-86
2021/09/19 10:32:45;;;;;;;;;;;;;;;12.37;81.80;98146.72;1688000;83;24853;-86
2021/09/19 10:35:19;;;;;;;;;;;;;;;12.34;81.74;98146.12;1658039;83;22198;-89
2021/09/19 10:38:03;;;;;;;;;;;;;;;12.36;81.68;98154.70;1636281;86;26181;-86
2021/09/19 10:40:34;;;;;;;;;;;;;;;12.39;81.60;98151.34;1613758;87;24369;-86
2021/09/19 10:43:00;;;;;;;;;;;;;;;12.33;81.50;98156.28;1615167;87;20629;-86
2021/09/19 10:45:42;;;;;;;;;;;;;;;12.34;81.44;98156.14;1633954;86;24814;-86
2021/09/19 10:48:15;;;;;;;;;;;;;;;12.36;81.41;98155.55;1627824;86;22186;-87
2021/09/19 10:50:43;;;;;;;;;;;;;;;12.37;81.34;98152.45;1635683;86;26690;-87
2021/09/19 10:53:17;;;;;;;;;;;;;;;12.35;81.26;98156.97;1640880;86;24119;-87
2021/09/19 10:55:59;;;;;;;;;;;;;;;12.33;81.19;98154.97;1641351;86;20337;-87
2021/09/19 10:58:29;;;;;;;;;;;;;;;12.29;81.10;98152.22;1633314;86;24811;-87
2021/09/19 11:01:00;;;;;;;;;;;;;;;12.28;81.02;98159.73;1635692;85;22817;-87
2021/09/19 11:03:27;;;;;;;;;;;;;;;12.25;80.96;98161.30;1623834;86;26167;-86
2021/09/19 11:05:53;;;;;;;;;;;;;;;12.23;80.94;98155.34;1630158;86;24549;-87
2021/09/19 11:08:21;;;;;;;;;;;;;;;12.25;80.94;98157.37;1627646;86;20389;-87
2021/09/19 11:10:53;;;;;;;;;;;;;;;12.09;80.92;98139.41;1637599;86;24749;-87
2021/09/19 11:13:21;;;;;;;;;;;;;;;12.14;80.91;98146.44;1629918;86;21968;-87
2021/09/19 11:16:04;;;;;;;;;;;;;;;12.16;80.90;98151.09;1639609;86;26097;-87
2021/09/19 11:18:31;;;;;;;;;;;;;;;12.18;80.88;98148.31;1651088;85;24516;-87
2021/09/19 11:21:14;;;;;;;;;;;;;;;12.16;80.82;98148.47;1636461;86;20637;-87
2021/09/19 11:23:45;;;;;;;;;;;;;;;12.15;80.82;98147.63;1635608;86;24744;-87
2021/09/19 11:26:11;;;;;;;;;;;;;;;12.13;80.77;98144.28;1628511;86;21996;-87
2021/09/19 11:28:38;;;;;;;;;;;;;;;12.06;80.74;98143.11;1641632;86;26086;-87
2021/09/19 11:31:04;;;;;;;;;;;;;;;12.05;80.73;98140.16;1628210;86;24410;-87
2021/09/19 11:33:31;;;;;;;;;;;;;;;12.03;80.69;98143.36;1629585;86;20539;-87
2021/09/19 11:36:05;;;;;;;;;;;;;;;12.01;80.70;98137.39;1638184;86;24747;-86
2021/09/19 11:38:38;;;;;;;;;;;;;;;12.02;80.71;98143.00;1630607;86;22116;-87
2021/09/19 11:41:05;;;;;;;;;;;;;;;12.03;80.70;98141.22;1634633;86;26788;-86
2021/09/19 11:43:33;;;;;;;;;;;;;;;12.03;80.68;98142.05;1635384;86;24826;-86
2021/09/19 11:46:06;;;;;;;;;;;;;;;12.05;80.65;98147.19;1641171;86;20252;-86
2021/09/19 11:48:32;;;;;;;;;;;;;;;12.06;80.63;98144.41;1634948;86;25742;-86
2021/09/19 11:50:58;;;;;;;;;;;;;;;12.07;80.63;98141.31;1637478;86;20214;-86
2021/09/19 11:53:24;;;;;;;;;;;;;;;12.08;80.61;98142.52;1634039;86;25990;-86
2021/09/19 11:55:50;;;;;;;;;;;;;;;12.06;80.60;98143.58;1635033;86;20921;-86
2021/09/19 11:58:17;;;;;;;;;;;;;;;12.02;80.56;98140.38;1633828;86;20330;-86
2021/09/19 12:00:48;;;;;;;;;;;;;;;12.03;80.51;98143.36;1634647;86;24927;-86
2021/09/19 12:03:15;;;;;;;;;;;;;;;12.05;80.49;98140.16;1635299;86;22548;-86
2021/09/19 12:05:41;;;;;;;;;;;;;;;12.04;80.49;98143.73;1638408;86;26015;-87
2021/09/19 12:08:08;;;;;;;;;;;;;;;12.02;80.48;98146.10;1618424;86;24411;-87
2021/09/19 12:10:34;;;;;;;;;;;;;;;12.04;80.48;98149.45;1634817;86;20263;-87
2021/09/19 12:13:01;;;;;;;;;;;;;;;12.02;80.51;98146.94;1649475;85;20230;-87
2021/09/19 12:15:28;;;;;;;;;;;;;;;12.05;80.51;98138.00;1657790;85;21990;-87
2021/09/19 12:18:04;;;;;;;;;;;;;;;12.05;80.54;98137.53;1619847;86;26006;-87
2021/09/19 12:20:30;;;;;;;;;;;;;;;12.04;80.59;98143.73;1650442;85;24526;-87
2021/09/19 12:23:16;;;;;;;;;;;;;;;12.02;80.62;98143.00;1665386;85;20896;-87
2021/09/19 12:25:48;;;;;;;;;;;;;;;12.04;80.62;98142.89;1649730;85;24983;-87
2021/09/19 12:28:27;;;;;;;;;;;;;;;12.05;80.62;98135.38;1648162;85;22079;-86
2021/09/19 12:31:00;;;;;;;;;;;;;;;12.07;80.63;98131.66;1651262;84;26671;-86
2021/09/19 12:33:26;;;;;;;;;;;;;;;12.17;80.67;98131.74;1650032;85;24443;-86
2021/09/19 12:35:53;;;;;;;;;;;;;;;12.22;80.74;98134.83;1648420;84;20245;-87
2021/09/19 12:38:20;;;;;;;;;;;;;;;12.24;80.77;98130.77;1671862;84;24792;-86
2021/09/19 12:40:47;;;;;;;;;;;;;;;12.28;80.79;98130.39;1667854;84;22320;-87
2021/09/19 12:43:17;;;;;;;;;;;;;;;12.31;80.84;98137.20;1657898;84;21093;-86
2021/09/19 12:45:48;;;;;;;;;;;;;;;12.35;80.86;98128.11;1671693;84;24495;-87
2021/09/19 12:48:14;;;;;;;;;;;;;;;12.43;80.95;98131.79;1665749;84;20325;-86
2021/09/19 12:50:40;;;;;;;;;;;;;;;12.48;80.98;98115.66;1650964;85;25570;-86
2021/09/19 12:53:06;;;;;;;;;;;;;;;12.66;81.01;98123.77;1658744;85;20885;-87